Hatfield, United Kingdom
Current Conditions -  °F | °C
As of 10:50 PM on Thursday 23 Oct 2014 (Local Time) from EGGW Reporting Station
Broken Clouds Broken Clouds  
Wind Chill: 57°   Ceiling: 500
Heat Index: 57°   Visibility: 6mi
Dew Point: 57°   Wind: 9mph
Humidity: 100%   Direction: 210°SSW
Pressure: 30"   Gusts: NA
Location:  51.75°N, 0.23°W
Report Text: EGGW 232150Z 21008KT 9999 BKN005 14/14 Q1016
Loading
Personal Weather Stations






























Interactive Weather Map
Tropical Storm Tracking
New forecast layout! Learn more

10-Day Weather Forecast

Advertisements
Track Severe Weather on mobile